Detalii statie RANDUNICA PREST ANDRID [00001984]

Toti senzorii

Date Temperatura solului [C]Precipitatii [mm]Voltaj baterie [mV]Leaf Wetness [Min]HC Air temperature [C]HC Relative humidity [%]Punctul de roua [C]
medieminmaxsumaultimatimpmedieminmaxmediemediemin
2020-06-02 07:00:00 15.2 15.1 15.4 0 6864 6.57 6.04 7.17 0 0 0
2020-06-02 08:00:00 14.9 14.8 15.1 0 6864 9.21 7.43 11.69 0 0 0
2020-06-02 09:00:00 14.7 14.5 14.8 0 6914 13.32 12.23 14.37 0 0 0
2020-06-02 10:00:00 14.5 14.4 14.7 0 6952 15.7 14.87 16.59 0 0 0
2020-06-02 11:00:00 14.7 14.5 14.9 0 7108 17.12 16.65 17.91 0 0 0
2020-06-02 12:00:00 15.1 14.9 15.4 0 7254 17.86 16.05 19.87 0 0 0
2020-06-02 13:00:00 15.6 15.3 15.9 0 7264 18.4 16.18 19.76 0 0 0
2020-06-02 14:00:00 16.2 15.8 16.6 0 7206 17.98 16.91 19.85 0 0 0
2020-06-02 15:00:00 16.8 16.6 17.1 0 7246 18.21 17.49 19.11 0 0 0
2020-06-02 16:00:00 17.2 17.2 17.5 0 7264 19.41 18.03 21.04 0 0 0
2020-06-02 17:00:00 17.7 17.4 17.9 0 7274 19.42 18.34 21.17 0 0 0
2020-06-02 18:00:00 18.1 17.8 18.3 0 7264 18.85 18.08 20.58 0 0 0
2020-06-02 19:00:00 18.4 18.2 18.7 0 7108 16.91 14.65 20.3 0 0 0
2020-06-02 20:00:00 18.4 18.1 18.6 0 7000 14.48 14.23 14.64 0 0 0
2020-06-02 21:00:00 18.1 18 18.3 0 6962 14.21 13.73 14.5 0 0 0
2020-06-02 22:00:00 17.9 17.6 18.1 0 6922 12.63 11.78 13.65 0 0 0
2020-06-02 23:00:00 17.5 17.3 17.8 0 6884 11.98 11.6 12.3 0 0 0
2020-06-03 00:00:00 17.2 17.1 17.4 0 6884 11.96 11.62 12.28 0 0 0
2020-06-03 01:00:00 16.9 16.7 17.1 0 6844 11.72 11.39 12.02 0 0 0
2020-06-03 02:00:00 16.7 16.6 16.8 0 6854 11.14 10.86 11.4 0 0 0
2020-06-03 03:00:00 16.5 16.2 16.7 0 6844 10.09 9.48 10.8 0 0 0
2020-06-03 04:00:00 16.2 16 16.4 0 6834 9.39 8.97 9.83 0 0 0
2020-06-03 05:00:00 15.9 15.9 16.1 0 6844 7.57 7.2 8.37 0 0 0
2020-06-03 06:00:00 15.6 15.5 15.9 0 6834 8.94 7.59 10.26 0 0 0
2020-06-03 07:00:00 15.4 15.2 15.5 0 6854 11.08 10.46 11.71 0 0 0
2020-06-03 08:00:00 15.1 15 15.4 0 6864 12.1 11.7 13.08 0 0 0
2020-06-03 09:00:00 15.1 15 15.3 0 6914 14.54 13.41 15.56 0 0 0
2020-06-03 10:00:00 15 14.9 15.1 0 7010 16.11 15.49 16.91 0 0 0
2020-06-03 11:00:00 15.2 15.1 15.4 0 7158 17.44 16.94 17.94 0 0 0
2020-06-03 12:00:00 15.7 15.4 16 0 7264 18.46 17.71 19.66 0 0 0
2020-06-03 13:00:00 16.4 16.2 16.7 0 7264 19.56 18.46 20.35 0 0 0
2020-06-03 14:00:00 16.9 16.6 17.3 0 7246 19.76 18.84 21.28 0 0 0
2020-06-03 15:00:00 17.5 17.2 17.8 0.2 7088 15.76 13.8 20.27 0 0 0
2020-06-03 16:00:00 17.8 17.7 17.9 2.8 7148 13.53 12.62 14.52 0 0 0
2020-06-03 17:00:00 17.6 17.6 17.8 0.6 7274 15.35 14.18 17.14 0 0 0
2020-06-03 18:00:00 17.8 17.7 17.9 0 7264 17.02 16.23 17.67 0 0 0
2020-06-03 19:00:00 17.9 17.8 18.1 0 7254 16.63 15.69 17.35 0 0 0
2020-06-03 20:00:00 18.1 18 18.2 0 7254 15.62 15.01 16.51 0 0 0
2020-06-03 21:00:00 17.9 17.9 18.2 0 6982 14.9 14.59 15.12 0 0 0
2020-06-03 22:00:00 17.7 17.4 17.9 0 6942 14.18 13.45 14.52 0 0 0
2020-06-03 23:00:00 17.5 17.3 17.6 0 6904 13.24 12.6 13.59 0 0 0
2020-06-04 00:00:00 17.2 17 17.4 0 6884 12.01 11.73 12.28 0 0 0
2020-06-04 01:00:00 16.9 16.7 17.1 0.2 6864 12.32 12 12.62 0 0 0
2020-06-04 02:00:00 16.7 16.6 16.8 0 6874 12.03 11.48 12.25 0 0 0
2020-06-04 03:00:00 16.4 16.3 16.7 0 6864 10.6 10.24 11.28 0 0 0
2020-06-04 04:00:00 16.2 16.1 16.4 0 6864 10.09 9.44 10.55 0 0 0
2020-06-04 05:00:00 15.9 15.8 16.1 0 6854 9.8 9.57 9.99 0 0 0
2020-06-04 06:00:00 15.6 15.5 15.9 0 6834 9.07 8.82 9.6 0 0 0